This is the latest recevied weather packets stored in our database for station/object N5RPG. If no packets are shown the sender has not sent any weather packets the latest 1 day(s).
| Time | Temp. | Humidity | Pressure | Rain* | Wind** | Luminosity | Snow |
|---|---|---|---|---|---|---|---|
| 1778013411 | 28.89° C | 69% | 1007.3 hPa | 0 mm | 0.45 m/s, 188° | 896 W/m² | - |
| 1778013108 | 28.89° C | 69% | 1007.1 hPa | 0 mm | 1.79 m/s, 156° | 549 W/m² | - |
| 1778012803 | 28.33° C | 68% | 1007.2 hPa | 0 mm | 0.89 m/s, 259° | 314 W/m² | - |
| 1778012500 | 28.33° C | 68% | 1007.2 hPa | 0 mm | 0.89 m/s, 264° | 393 W/m² | - |
| 1778012196 | 28.89° C | 67% | 1007.3 hPa | 0 mm | 0.89 m/s, 179° | 284 W/m² | - |
| 1778011895 | 28.33° C | 68% | 1007.1 hPa | 0 mm | 1.79 m/s, 252° | 364 W/m² | - |
| 1778011592 | 28.33° C | 69% | 1007.3 hPa | 0 mm | 1.79 m/s, 204° | 355 W/m² | - |
| 1778011289 | 28.33° C | 70% | 1007.3 hPa | 0 mm | 0.89 m/s, 164° | 476 W/m² | - |
| 1778010985 | 28.33° C | 67% | 1007.4 hPa | 0 mm | 1.79 m/s, 213° | 167 W/m² | - |
| 1778010683 | 28.33° C | 67% | 1007.3 hPa | 0 mm | 2.68 m/s, 215° | 559 W/m² | - |
| 1778010380 | 28.33° C | 68% | 1007.2 hPa | 0 mm | 1.79 m/s, 209° | 381 W/m² | - |
| 1778010076 | 28.89° C | 67% | 1007.3 hPa | 0 mm | 2.24 m/s, 154° | 435 W/m² | - |
| 1778009773 | 29.44° C | 65% | 1007.2 hPa | 0 mm | 0.89 m/s, 133° | 722 W/m² | - |
| 1778009470 | 28.89° C | 67% | 1007.5 hPa | 0 mm | 1.34 m/s, 208° | 555 W/m² | - |
| 1778009169 | 28.33° C | 68% | 1007.7 hPa | 0 mm | 1.79 m/s, 103° | 833 W/m² | - |
| 1778008866 | 28.33° C | 68% | 1007.6 hPa | 0 mm | 2.68 m/s, 229° | 776 W/m² | - |
| 1778008564 | 27.78° C | 69% | 1007.8 hPa | 0 mm | 3.58 m/s, 211° | 933 W/m² | - |
| 1778008262 | 28.33° C | 67% | 1007.9 hPa | 0 mm | 1.79 m/s, 166° | 330 W/m² | - |
| 1778007962 | 27.78° C | 69% | 1007.9 hPa | 0 mm | 2.24 m/s, 209° | 1024 W/m² | - |
| 1778007657 | 27.22° C | 70% | 1007.9 hPa | 0 mm | 2.24 m/s, 160° | 408 W/m² | - |
| 1778007355 | 27.78° C | 70% | 1007.9 hPa | 0 mm | 0 m/s | 400 W/m² | - |
| 1778007051 | 27.78° C | 68% | 1007.8 hPa | 0 mm | 3.13 m/s, 260° | 681 W/m² | - |
| 1778006748 | 27.22° C | 69% | 1007.9 hPa | 0 mm | 1.79 m/s, 229° | 965 W/m² | - |
| 1778006445 | 27.22° C | 71% | 1008.1 hPa | 0 mm | 1.79 m/s, 213° | 565 W/m² | - |
| 1778006141 | 27.78° C | 70% | 1008.2 hPa | 0 mm | 2.24 m/s, 207° | 248 W/m² | - |
* Rain latest hour (hover to see other rain measurements)
** Current wind speed in m/s (hover to see current wind gust speed)